createdAt,value
2023-07-24T00:02:29.965Z,101080.50
2023-07-24T00:05:32.127Z,101074.72
2023-07-24T00:08:34.113Z,101065.88
2023-07-24T00:11:36.332Z,101069.34
2023-07-24T00:14:38.537Z,101069.09
2023-07-24T00:17:41.765Z,101072.66
2023-07-24T00:20:43.862Z,101068.75
2023-07-24T00:23:47.163Z,101073.50
2023-07-24T00:26:49.260Z,101069.34
2023-07-24T00:29:51.425Z,101070.16
2023-07-24T00:32:53.559Z,101062.16
2023-07-24T00:36:01.138Z,101065.72
2023-07-24T00:39:03.730Z,101061.31
2023-07-24T00:42:07.798Z,101062.16
2023-07-24T00:45:10.429Z,101053.34
2023-07-24T00:48:12.467Z,101056.41
2023-07-24T00:51:16.557Z,101054.50
2023-07-24T00:54:20.927Z,101049.22
2023-07-24T00:57:24.374Z,101044.59
2023-07-24T01:00:26.708Z,101040.97
2023-07-24T01:03:34.985Z,101058.06
2023-07-24T01:06:37.034Z,101040.16
2023-07-24T01:09:39.091Z,101037.16
2023-07-24T01:12:52.642Z,101032.16
2023-07-24T01:16:19.840Z,101034.66
2023-07-24T01:19:51.571Z,101036.56
2023-07-24T01:23:28.648Z,101030.25
2023-07-24T01:26:33.330Z,101031.06
2023-07-24T01:29:35.707Z,101029.41
2023-07-24T01:32:40.654Z,101038.72
2023-07-24T01:35:45.616Z,101050.59
2023-07-24T01:38:51.096Z,101044.41
2023-07-24T01:41:53.440Z,101038.31
2023-07-24T01:44:56.517Z,101040.56
2023-07-24T01:47:59.466Z,101044.47
2023-07-24T01:51:03.273Z,101041.13
2023-07-24T01:54:06.337Z,101039.25
2023-07-24T01:57:09.881Z,101041.13
2023-07-24T02:00:12.591Z,101042.22
2023-07-24T02:03:14.922Z,101047.50
2023-07-24T02:06:17.230Z,101050.47
2023-07-24T02:09:19.988Z,101039.41
2023-07-24T02:12:22.029Z,101047.38
2023-07-24T02:15:24.254Z,101042.97
2023-07-24T02:18:26.480Z,101045.22
2023-07-24T02:21:30.627Z,101041.88
2023-07-24T02:24:33.086Z,101045.22
2023-07-24T02:27:35.890Z,101041.31
2023-07-24T02:30:41.150Z,101033.91
2023-07-24T02:33:43.560Z,101038.22
2023-07-24T02:36:45.710Z,101029.13
2023-07-24T02:39:48.672Z,101039.63
2023-07-24T02:42:51.292Z,101040.97
2023-07-24T02:45:53.633Z,101031.53
2023-07-24T02:48:56.674Z,101032.06
2023-07-24T02:52:00.112Z,101040.88
2023-07-24T02:55:02.307Z,101043.63
2023-07-24T02:58:04.601Z,101046.97
2023-07-24T03:01:08.503Z,101057.47
2023-07-24T03:04:10.867Z,101056.63
2023-07-24T03:07:13.039Z,101053.63
2023-07-24T03:10:15.255Z,101046.47
2023-07-24T03:13:18.342Z,101051.47
2023-07-24T03:16:22.336Z,101049.78
2023-07-24T03:19:24.930Z,101042.97
2023-07-24T03:22:27.083Z,101051.22
2023-07-24T03:25:29.224Z,101047.66
2023-07-24T03:28:32.123Z,101043.22
2023-07-24T03:31:34.907Z,101045.47
2023-07-24T03:34:37.659Z,101044.41
2023-07-24T03:37:39.969Z,101053.78
2023-07-24T03:40:42.198Z,101051.94
2023-07-24T03:43:45.375Z,101064.00
2023-07-24T03:46:47.491Z,101058.84
2023-07-24T03:49:51.696Z,101059.78
2023-07-24T03:52:53.701Z,101043.38
2023-07-24T03:55:56.393Z,101054.72
2023-07-24T03:58:58.645Z,101064.16
2023-07-24T04:02:00.839Z,101044.63
2023-07-24T04:05:02.919Z,101053.16
2023-07-24T04:08:05.992Z,101060.50
2023-07-24T04:11:08.071Z,101057.28
2023-07-24T04:14:10.223Z,101047.19
2023-07-24T04:17:12.201Z,101048.44
2023-07-24T04:20:14.509Z,101041.34
2023-07-24T04:23:16.475Z,101045.13
2023-07-24T04:26:18.514Z,101055.06
2023-07-24T04:29:24.915Z,101058.72
2023-07-24T04:32:29.973Z,101051.31
2023-07-24T04:35:31.986Z,101035.06
2023-07-24T04:38:34.097Z,101037.56
2023-07-24T04:41:36.154Z,101039.81
2023-07-24T04:44:38.220Z,101039.31
2023-07-24T04:47:40.406Z,101045.16
2023-07-24T04:50:42.507Z,101045.09
2023-07-24T04:53:45.210Z,101042.06
2023-07-24T04:56:48.494Z,101037.75
2023-07-24T04:59:50.534Z,101035.59
2023-07-24T05:02:52.671Z,101021.00
2023-07-24T05:05:58.182Z,101034.59
2023-07-24T05:09:00.338Z,101026.84
2023-07-24T05:12:02.453Z,101033.41
2023-07-24T05:15:04.897Z,101033.59
2023-07-24T05:18:07.004Z,101036.16
2023-07-24T05:21:09.334Z,101031.16
2023-07-24T05:24:11.537Z,101042.22
2023-07-24T05:27:13.836Z,101037.63
2023-07-24T05:30:16.893Z,101038.91
2023-07-24T05:33:18.936Z,101031.91
2023-07-24T05:36:21.012Z,101027.34
2023-07-24T05:39:23.092Z,101023.75
2023-07-24T05:42:25.255Z,101021.34
2023-07-24T05:45:28.459Z,101019.91
2023-07-24T05:48:30.693Z,101021.00
2023-07-24T05:51:32.847Z,101022.81
2023-07-24T05:54:35.008Z,101023.16
2023-07-24T05:57:37.657Z,101019.31
2023-07-24T06:00:40.244Z,101013.59
2023-07-24T06:03:42.498Z,100999.06
2023-07-24T06:06:45.064Z,101003.00
2023-07-24T06:09:47.200Z,101005.75
2023-07-24T06:12:49.252Z,101003.25
2023-07-24T06:15:53.248Z,100997.59
2023-07-24T06:18:55.341Z,101001.25
2023-07-24T06:21:57.583Z,100998.00
2023-07-24T06:24:59.815Z,100996.91
2023-07-24T06:28:01.897Z,100997.16
2023-07-24T06:31:03.971Z,100996.41
2023-07-24T06:34:06.338Z,100996.25
2023-07-24T06:37:21.142Z,100991.16
2023-07-24T06:40:25.709Z,100990.44
2023-07-24T06:43:30.060Z,100987.50
2023-07-24T06:46:34.774Z,100989.25
2023-07-24T06:49:37.846Z,100987.56
2023-07-24T06:52:39.862Z,100986.22
2023-07-24T06:55:43.375Z,100987.88
2023-07-24T06:58:45.488Z,100982.97
2023-07-24T07:01:47.531Z,100978.56
2023-07-24T07:04:49.621Z,100986.06
2023-07-24T07:07:51.857Z,100972.13
2023-07-24T07:10:58.339Z,100980.94
2023-07-24T07:14:00.430Z,100972.94
2023-07-24T07:17:02.634Z,100968.59
2023-07-24T07:20:05.118Z,100962.31
2023-07-24T07:23:07.206Z,100967.31
2023-07-24T07:26:09.705Z,100969.56
2023-07-24T07:29:11.747Z,100959.66
2023-07-24T07:35:37.562Z,100964.97
2023-07-24T07:38:40.957Z,100961.72
2023-07-24T07:41:43.147Z,100955.66
2023-07-24T07:44:45.395Z,100957.66
2023-07-24T07:47:47.564Z,100952.72
2023-07-24T07:50:53.101Z,100949.75
2023-07-24T07:53:55.795Z,100953.91
2023-07-24T07:56:57.842Z,100945.13
2023-07-24T07:59:59.774Z,100946.28
2023-07-24T08:03:01.928Z,100942.16
2023-07-24T08:06:04.253Z,100943.00
2023-07-24T08:09:06.447Z,100937.25
2023-07-24T08:12:09.110Z,100930.63
2023-07-24T08:15:11.731Z,100924.63
2023-07-24T08:18:13.865Z,100922.19
2023-07-24T08:21:16.398Z,100916.16
2023-07-24T08:24:18.455Z,100909.53
2023-07-24T08:27:20.557Z,100911.78
2023-07-24T08:30:22.780Z,100915.13
2023-07-24T08:33:25.002Z,100905.75
2023-07-24T08:36:27.104Z,100913.00
2023-07-24T08:39:29.834Z,100906.38
2023-07-24T08:42:32.783Z,100914.38
2023-07-24T08:45:34.943Z,100916.59
2023-07-24T08:48:39.069Z,100915.00
2023-07-24T08:51:45.694Z,100909.22
2023-07-24T08:54:49.988Z,100900.75
2023-07-24T08:57:52.154Z,100896.88
2023-07-24T09:00:54.482Z,100895.47
2023-07-24T09:03:57.529Z,100890.03
2023-07-24T09:07:00.111Z,100881.47
2023-07-24T09:10:02.214Z,100877.41
2023-07-24T09:13:05.310Z,100876.88
2023-07-24T09:16:07.474Z,100870.28
2023-07-24T09:19:26.640Z,100864.84
2023-07-24T09:22:29.842Z,100868.66
2023-07-24T09:25:35.987Z,100867.31
2023-07-24T09:28:40.445Z,100859.34
2023-07-24T09:31:42.810Z,100855.78
2023-07-24T09:34:44.857Z,100836.75
2023-07-24T09:37:47.857Z,100854.72
2023-07-24T09:40:51.470Z,100850.03
2023-07-24T09:44:00.008Z,100840.44
2023-07-24T09:47:25.860Z,100838.78
2023-07-24T09:50:25.687Z,100832.16
2023-07-24T09:53:55.161Z,100824.16
2023-07-24T09:57:10.727Z,100822.00
2023-07-24T10:00:18.277Z,100819.53
2023-07-24T10:03:21.672Z,100820.94
2023-07-24T10:06:25.043Z,100803.78
2023-07-24T10:09:30.358Z,100813.19
2023-07-24T10:12:33.790Z,100812.06
2023-07-24T10:15:37.036Z,100802.72
2023-07-24T10:18:47.280Z,100798.34
2023-07-24T10:21:50.352Z,100789.22
2023-07-24T10:24:56.907Z,100783.75
2023-07-24T10:28:12.877Z,100789.84
2023-07-24T10:31:24.512Z,100783.22
2023-07-24T10:34:38.099Z,100784.63
2023-07-24T10:37:40.298Z,100776.91
2023-07-24T10:40:45.964Z,100770.81
2023-07-24T10:43:52.483Z,100755.66
2023-07-24T10:46:54.695Z,100754.53
2023-07-24T10:49:59.231Z,100749.59
2023-07-24T10:53:03.261Z,100752.34
2023-07-24T10:56:07.088Z,100743.53
2023-07-24T10:59:11.546Z,100747.13
2023-07-24T11:02:14.337Z,100741.91
2023-07-24T11:05:18.304Z,100741.63
2023-07-24T11:08:22.343Z,100741.38
2023-07-24T11:11:35.793Z,100720.38
2023-07-24T11:14:50.052Z,100731.50
2023-07-24T11:17:52.411Z,100719.00
2023-07-24T11:20:56.493Z,100717.09
2023-07-24T11:24:02.446Z,100721.22
2023-07-24T11:27:11.916Z,100709.63
2023-07-24T11:30:23.328Z,100722.09
2023-07-24T11:33:27.803Z,100712.09
2023-07-24T11:36:32.301Z,100715.75
2023-07-24T11:39:35.633Z,100709.63
2023-07-24T11:42:46.105Z,100703.03
2023-07-24T11:45:55.377Z,100696.13
2023-07-24T11:48:59.386Z,100700.28
2023-07-24T11:52:08.622Z,100687.28
2023-07-24T11:55:16.440Z,100692.78
2023-07-24T11:58:22.119Z,100686.75
2023-07-24T12:01:24.172Z,100682.59
2023-07-24T12:04:27.357Z,100667.38
2023-07-24T12:07:36.051Z,100674.03
2023-07-24T12:10:40.403Z,100668.78
2023-07-24T12:13:42.984Z,100670.69
2023-07-24T12:16:45.319Z,100675.69
2023-07-24T12:19:48.234Z,100674.53
2023-07-24T12:22:50.878Z,100660.19
2023-07-24T12:25:53.896Z,100658.56
2023-07-24T12:28:56.226Z,100663.22
2023-07-24T12:32:03.537Z,100660.19
2023-07-24T12:35:06.632Z,100661.28
2023-07-24T12:38:08.669Z,100653.28
2023-07-24T12:41:10.883Z,100645.25
2023-07-24T12:44:13.096Z,100640.00
2023-07-24T12:47:15.481Z,100636.69
2023-07-24T12:50:17.896Z,100634.19
2023-07-24T12:53:28.340Z,100630.88
2023-07-24T12:56:34.920Z,100628.13
2023-07-24T12:59:37.008Z,100616.50
2023-07-24T13:02:39.306Z,100619.28
2023-07-24T13:05:41.700Z,100622.31
2023-07-24T13:08:44.852Z,100620.91
2023-07-24T13:11:49.623Z,100617.59
2023-07-24T13:14:51.852Z,100612.63
2023-07-24T13:17:55.480Z,100611.25
2023-07-24T13:20:58.090Z,100606.25
2023-07-24T13:24:00.260Z,100599.34
2023-07-24T13:27:02.419Z,100599.34
2023-07-24T13:30:07.544Z,100599.34
2023-07-24T13:33:10.829Z,100584.09
2023-07-24T13:36:13.766Z,100570.28
2023-07-24T13:39:16.877Z,100571.38
2023-07-24T13:42:18.956Z,100563.13
2023-07-24T13:45:21.047Z,100555.09
2023-07-24T13:48:23.266Z,100564.78
2023-07-24T13:51:25.474Z,100559.75
2023-07-24T13:54:28.309Z,100551.72
2023-07-24T13:57:30.511Z,100551.47
2023-07-24T14:00:33.774Z,100543.19
2023-07-24T14:03:36.073Z,100545.66
2023-07-24T14:06:38.249Z,100541.47
2023-07-24T14:09:43.419Z,100537.91
2023-07-24T14:12:46.522Z,100537.09
2023-07-24T14:15:49.619Z,100534.88
2023-07-24T14:18:52.721Z,100542.63
2023-07-24T14:21:54.979Z,100534.88
2023-07-24T14:24:56.995Z,100525.78
2023-07-24T14:27:59.142Z,100529.91
2023-07-24T14:31:01.829Z,100509.19
2023-07-24T14:34:04.109Z,100511.13
2023-07-24T14:37:07.090Z,100509.19
2023-07-24T14:40:11.808Z,100501.94
2023-07-24T14:43:14.515Z,100503.56
2023-07-24T14:46:16.744Z,100501.88
2023-07-24T14:49:18.893Z,100488.31
2023-07-24T14:52:21.237Z,100492.94
2023-07-24T14:55:23.538Z,100496.00
2023-07-24T14:58:26.990Z,100494.34
2023-07-24T15:01:37.850Z,100491.59
2023-07-24T15:04:40.327Z,100486.88
2023-07-24T15:07:42.547Z,100487.38
2023-07-24T15:10:45.893Z,100479.91
2023-07-24T15:13:48.166Z,100463.56
2023-07-24T15:16:50.457Z,100468.25
2023-07-24T15:19:52.571Z,100459.38
2023-07-24T15:22:54.656Z,100451.59
2023-07-24T15:25:56.851Z,100459.88
2023-07-24T15:28:59.058Z,100443.56
2023-07-24T15:32:02.397Z,100453.50
2023-07-24T15:35:05.793Z,100451.56
2023-07-24T15:38:08.963Z,100443.06
2023-07-24T15:41:11.140Z,100445.31
2023-07-24T15:44:13.687Z,100451.16
2023-07-24T15:47:17.022Z,100453.69
2023-07-24T15:50:19.125Z,100449.28
2023-07-24T15:53:21.824Z,100463.44
2023-07-24T15:56:24.078Z,100451.06
2023-07-24T15:59:29.246Z,100446.38
2023-07-24T16:02:31.401Z,100437.59
2023-07-24T16:05:33.579Z,100430.41
2023-07-24T16:08:35.690Z,100442.59
2023-07-24T16:11:37.830Z,100439.63
2023-07-24T16:14:40.659Z,100433.84
2023-07-24T16:20:49.435Z,100430.34
2023-07-24T16:23:51.654Z,100440.56
2023-07-24T16:27:08.640Z,100433.13
2023-07-24T16:30:11.386Z,100427.91
2023-07-24T16:33:23.060Z,100427.63
2023-07-24T16:36:25.899Z,100425.44
2023-07-24T16:39:33.324Z,100428.22
2023-07-24T16:42:36.394Z,100424.63
2023-07-24T16:45:41.757Z,100423.56
2023-07-24T16:48:45.069Z,100416.38
2023-07-24T16:51:47.249Z,100416.97
2023-07-24T16:54:49.485Z,100417.25
2023-07-24T16:57:57.359Z,100433.03
2023-07-24T17:01:00.499Z,100438.81
2023-07-24T17:04:02.911Z,100419.78
2023-07-24T17:07:05.639Z,100424.75
2023-07-24T17:10:10.837Z,100424.72
2023-07-24T17:13:13.706Z,100420.88
2023-07-24T17:16:20.129Z,100417.00
2023-07-24T17:19:24.126Z,100418.94
2023-07-24T17:22:26.553Z,100425.59
2023-07-24T17:25:28.864Z,100417.59
2023-07-24T17:28:30.906Z,100413.72
2023-07-24T17:31:33.771Z,100408.50
2023-07-24T17:34:36.167Z,100403.81
2023-07-24T17:37:39.240Z,100400.50
2023-07-24T17:40:42.069Z,100398.53
2023-07-24T17:43:46.677Z,100399.06
2023-07-24T17:46:48.759Z,100398.50
2023-07-24T17:50:05.211Z,100402.38
2023-07-24T17:53:11.768Z,100399.63
2023-07-24T17:56:17.305Z,100407.31
2023-07-24T17:59:24.267Z,100407.88
2023-07-24T18:02:26.909Z,100400.44
2023-07-24T18:05:28.968Z,100402.63
2023-07-24T18:08:32.947Z,100395.19
2023-07-24T18:11:36.178Z,100404.00
2023-07-24T18:14:38.327Z,100409.78
2023-07-24T18:17:40.898Z,100402.34
2023-07-24T18:20:43.244Z,100409.22
2023-07-24T18:23:46.723Z,100399.84
2023-07-24T18:26:48.967Z,100408.09
2023-07-24T18:29:51.337Z,100413.34
2023-07-24T18:32:54.560Z,100408.91
2023-07-24T18:35:58.132Z,100411.38
2023-07-24T18:39:00.601Z,100413.03
2023-07-24T18:42:02.976Z,100413.31
2023-07-24T18:45:05.731Z,100411.09
2023-07-24T18:48:09.643Z,100407.78
2023-07-24T18:51:12.063Z,100407.75
2023-07-24T18:54:15.591Z,100402.25
2023-07-24T18:57:17.880Z,100408.25
2023-07-24T19:00:20.187Z,100396.41
2023-07-24T19:03:22.246Z,100393.38
2023-07-24T19:06:24.433Z,100393.66
2023-07-24T19:09:26.488Z,100388.69
2023-07-24T19:12:28.621Z,100378.50
2023-07-24T19:15:30.724Z,100385.38
2023-07-24T19:18:32.769Z,100390.06
2023-07-24T19:21:36.142Z,100388.41
2023-07-24T19:24:38.116Z,100382.31
2023-07-24T19:27:41.521Z,100385.66
2023-07-24T19:30:43.690Z,100393.34
2023-07-24T19:33:45.673Z,100385.38
2023-07-24T19:36:47.701Z,100397.19
2023-07-24T19:39:49.805Z,100385.38
2023-07-24T19:42:52.300Z,100387.28
2023-07-24T19:45:54.932Z,100386.47
2023-07-24T19:48:57.179Z,100387.28
2023-07-24T19:52:01.917Z,100380.97
2023-07-24T19:55:04.420Z,100380.16
2023-07-24T19:58:10.088Z,100376.00
2023-07-24T20:01:17.557Z,100381.50
2023-07-24T20:04:19.559Z,100365.81
2023-07-24T20:07:21.669Z,100370.44
2023-07-24T20:10:24.933Z,100369.63
2023-07-24T20:13:28.815Z,100360.00
2023-07-24T20:16:31.113Z,100349.81
2023-07-24T20:19:36.938Z,100350.91
2023-07-24T20:22:38.990Z,100353.09
2023-07-24T20:25:41.917Z,100342.34
2023-07-24T20:28:44.960Z,100341.53
2023-07-24T20:31:47.156Z,100345.97
2023-07-24T20:34:49.500Z,100340.69
2023-07-24T20:37:51.617Z,100337.94
2023-07-24T20:40:54.277Z,100338.22
2023-07-24T20:43:56.463Z,100336.00
2023-07-24T20:46:58.911Z,100345.66
2023-07-24T20:50:01.007Z,100340.97
2023-07-24T20:53:03.049Z,100346.75
2023-07-24T20:56:05.140Z,100339.88
2023-07-24T20:59:07.160Z,100330.75
2023-07-24T21:02:09.248Z,100342.59
2023-07-24T21:05:11.369Z,100342.34
2023-07-24T21:08:13.568Z,100337.38
2023-07-24T21:11:15.867Z,100326.31
2023-07-24T21:14:17.903Z,100335.09
2023-07-24T21:17:20.121Z,100331.81
2023-07-24T21:20:22.823Z,100335.97
2023-07-24T21:23:26.881Z,100343.94
2023-07-24T21:26:29.240Z,100332.34
2023-07-24T21:29:31.399Z,100331.28
2023-07-24T21:32:34.045Z,100331.00
2023-07-24T21:35:36.091Z,100328.53
2023-07-24T21:38:41.563Z,100330.16
2023-07-24T21:41:44.494Z,100322.19
2023-07-24T21:44:46.624Z,100315.31
2023-07-24T21:47:49.142Z,100316.13
2023-07-24T21:50:54.345Z,100321.63
2023-07-24T21:53:56.449Z,100312.25
2023-07-24T21:56:58.457Z,100307.59
2023-07-24T22:00:01.312Z,100307.59
2023-07-24T22:03:05.670Z,100308.69
2023-07-24T22:06:08.098Z,100304.22
2023-07-24T22:09:10.213Z,100302.56
2023-07-24T22:12:12.247Z,100295.97
2023-07-24T22:15:14.311Z,100303.41
2023-07-24T22:18:17.253Z,100306.16
2023-07-24T22:21:19.446Z,100305.31
2023-07-24T22:24:21.665Z,100297.06
2023-07-24T22:27:23.923Z,100296.78
2023-07-24T22:30:26.029Z,100298.72
2023-07-24T22:33:28.085Z,100293.50
2023-07-24T22:36:31.053Z,100297.06
2023-07-24T22:39:33.196Z,100306.69
2023-07-24T22:42:35.345Z,100298.16
2023-07-24T22:45:37.471Z,100296.50
2023-07-24T22:48:39.692Z,100306.09
2023-07-24T22:51:41.700Z,100303.06
2023-07-24T22:54:44.360Z,100296.19
2023-07-24T22:57:46.683Z,100289.00
2023-07-24T23:00:48.866Z,100292.88
2023-07-24T23:03:50.954Z,100291.22
2023-07-24T23:06:55.826Z,100293.16
2023-07-24T23:09:57.881Z,100290.13
2023-07-24T23:13:00.018Z,100299.72
2023-07-24T23:16:02.309Z,100289.00
2023-07-24T23:19:04.384Z,100292.28
2023-07-24T23:22:06.603Z,100289.00
2023-07-24T23:25:09.230Z,100280.44
2023-07-24T23:28:11.221Z,100264.47
2023-07-24T23:31:13.355Z,100274.97
2023-07-24T23:34:15.477Z,100273.88
2023-07-24T23:37:17.461Z,100279.09
2023-07-24T23:40:19.498Z,100267.78
2023-07-24T23:43:21.585Z,100275.50
2023-07-24T23:46:23.697Z,100276.06
2023-07-24T23:49:25.868Z,100272.22
2023-07-24T23:52:29.493Z,100268.63
2023-07-24T23:55:31.982Z,100273.31
2023-07-24T23:58:34.127Z,100274.13
